sensor_id;sensor_type;location;lat;lon;timestamp;P1;durP1;ratioP1;P2;durP2;ratioP2
4102;SDS011;2065;49.790;9.620;2023-06-26T00:01:07;8.77;;;7.23;;
4102;SDS011;2065;49.790;9.620;2023-06-26T00:03:34;9.63;;;8.07;;
4102;SDS011;2065;49.790;9.620;2023-06-26T00:06:02;7.93;;;7.03;;
4102;SDS011;2065;49.790;9.620;2023-06-26T00:08:29;10.97;;;7.90;;
4102;SDS011;2065;49.790;9.620;2023-06-26T00:10:56;9.00;;;7.57;;
4102;SDS011;2065;49.790;9.620;2023-06-26T00:13:24;8.80;;;7.67;;
4102;SDS011;2065;49.790;9.620;2023-06-26T00:15:51;8.10;;;7.33;;
4102;SDS011;2065;49.790;9.620;2023-06-26T00:18:18;7.63;;;6.83;;
4102;SDS011;2065;49.790;9.620;2023-06-26T00:20:45;9.77;;;7.27;;
4102;SDS011;2065;49.790;9.620;2023-06-26T00:23:13;9.83;;;8.80;;
4102;SDS011;2065;49.790;9.620;2023-06-26T00:25:42;9.20;;;7.07;;
4102;SDS011;2065;49.790;9.620;2023-06-26T00:28:09;7.87;;;7.10;;
4102;SDS011;2065;49.790;9.620;2023-06-26T00:30:38;11.77;;;8.35;;
4102;SDS011;2065;49.790;9.620;2023-06-26T00:33:05;9.10;;;7.20;;
4102;SDS011;2065;49.790;9.620;2023-06-26T00:35:32;8.37;;;7.53;;
4102;SDS011;2065;49.790;9.620;2023-06-26T00:38:00;9.60;;;7.57;;
4102;SDS011;2065;49.790;9.620;2023-06-26T00:40:27;8.40;;;7.60;;
4102;SDS011;2065;49.790;9.620;2023-06-26T00:42:55;9.70;;;8.00;;
4102;SDS011;2065;49.790;9.620;2023-06-26T00:45:22;7.83;;;7.03;;
4102;SDS011;2065;49.790;9.620;2023-06-26T00:47:50;8.33;;;7.40;;
4102;SDS011;2065;49.790;9.620;2023-06-26T00:50:18;8.97;;;6.73;;
4102;SDS011;2065;49.790;9.620;2023-06-26T00:52:45;7.60;;;6.90;;
4102;SDS011;2065;49.790;9.620;2023-06-26T00:55:12;8.00;;;7.20;;
4102;SDS011;2065;49.790;9.620;2023-06-26T00:57:39;11.70;;;9.10;;
4102;SDS011;2065;49.790;9.620;2023-06-26T01:00:07;10.00;;;7.60;;
4102;SDS011;2065;49.790;9.620;2023-06-26T01:02:35;9.17;;;8.10;;
4102;SDS011;2065;49.790;9.620;2023-06-26T01:05:05;9.47;;;8.43;;
4102;SDS011;2065;49.790;9.620;2023-06-26T01:07:35;8.70;;;7.57;;
4102;SDS011;2065;49.790;9.620;2023-06-26T01:10:03;18.00;;;8.63;;
4102;SDS011;2065;49.790;9.620;2023-06-26T01:12:31;9.70;;;8.37;;
4102;SDS011;2065;49.790;9.620;2023-06-26T01:14:59;12.83;;;9.10;;
4102;SDS011;2065;49.790;9.620;2023-06-26T01:17:26;8.50;;;7.60;;
4102;SDS011;2065;49.790;9.620;2023-06-26T01:19:56;28.93;;;8.57;;
4102;SDS011;2065;49.790;9.620;2023-06-26T01:22:27;9.53;;;7.73;;
4102;SDS011;2065;49.790;9.620;2023-06-26T01:25:02;8.40;;;7.60;;
4102;SDS011;2065;49.790;9.620;2023-06-26T01:27:45;8.63;;;7.80;;
4102;SDS011;2065;49.790;9.620;2023-06-26T01:30:13;15.00;;;7.80;;
4102;SDS011;2065;49.790;9.620;2023-06-26T01:32:42;9.50;;;8.03;;
4102;SDS011;2065;49.790;9.620;2023-06-26T01:35:11;10.03;;;8.63;;
4102;SDS011;2065;49.790;9.620;2023-06-26T01:37:39;8.60;;;7.67;;
4102;SDS011;2065;49.790;9.620;2023-06-26T01:40:07;10.77;;;8.33;;
4102;SDS011;2065;49.790;9.620;2023-06-26T01:42:35;8.70;;;7.70;;
4102;SDS011;2065;49.790;9.620;2023-06-26T01:45:07;12.45;;;7.65;;
4102;SDS011;2065;49.790;9.620;2023-06-26T01:47:37;10.67;;;8.37;;
4102;SDS011;2065;49.790;9.620;2023-06-26T01:50:09;10.13;;;7.97;;
4102;SDS011;2065;49.790;9.620;2023-06-26T01:52:43;9.60;;;8.60;;
4102;SDS011;2065;49.790;9.620;2023-06-26T01:55:17;10.90;;;8.63;;
4102;SDS011;2065;49.790;9.620;2023-06-26T01:57:50;10.37;;;8.63;;
4102;SDS011;2065;49.790;9.620;2023-06-26T02:00:22;12.97;;;8.33;;
4102;SDS011;2065;49.790;9.620;2023-06-26T02:02:51;9.70;;;8.37;;
4102;SDS011;2065;49.790;9.620;2023-06-26T02:05:18;8.87;;;7.97;;
4102;SDS011;2065;49.790;9.620;2023-06-26T02:07:46;9.80;;;8.20;;
4102;SDS011;2065;49.790;9.620;2023-06-26T02:10:13;9.50;;;8.50;;
4102;SDS011;2065;49.790;9.620;2023-06-26T02:12:40;9.90;;;8.43;;
4102;SDS011;2065;49.790;9.620;2023-06-26T02:15:08;9.73;;;8.73;;
4102;SDS011;2065;49.790;9.620;2023-06-26T02:17:36;9.23;;;8.13;;
4102;SDS011;2065;49.790;9.620;2023-06-26T02:20:04;11.07;;;8.47;;
4102;SDS011;2065;49.790;9.620;2023-06-26T02:22:35;8.90;;;8.10;;
4102;SDS011;2065;49.790;9.620;2023-06-26T02:25:02;9.10;;;7.90;;
4102;SDS011;2065;49.790;9.620;2023-06-26T02:27:31;9.40;;;8.20;;
4102;SDS011;2065;49.790;9.620;2023-06-26T02:29:58;10.47;;;8.80;;
4102;SDS011;2065;49.790;9.620;2023-06-26T02:32:25;8.20;;;7.40;;
4102;SDS011;2065;49.790;9.620;2023-06-26T02:34:54;8.37;;;7.57;;
4102;SDS011;2065;49.790;9.620;2023-06-26T02:37:20;9.60;;;7.70;;
4102;SDS011;2065;49.790;9.620;2023-06-26T02:39:47;8.87;;;7.97;;
4102;SDS011;2065;49.790;9.620;2023-06-26T02:42:14;9.33;;;7.87;;
4102;SDS011;2065;49.790;9.620;2023-06-26T02:44:41;15.43;;;8.33;;
4102;SDS011;2065;49.790;9.620;2023-06-26T02:47:08;9.57;;;8.57;;
4102;SDS011;2065;49.790;9.620;2023-06-26T02:49:39;9.67;;;8.20;;
4102;SDS011;2065;49.790;9.620;2023-06-26T02:52:07;9.97;;;7.90;;
4102;SDS011;2065;49.790;9.620;2023-06-26T02:54:34;11.43;;;8.70;;
4102;SDS011;2065;49.790;9.620;2023-06-26T02:57:03;8.93;;;7.50;;
4102;SDS011;2065;49.790;9.620;2023-06-26T02:59:32;9.60;;;7.70;;
4102;SDS011;2065;49.790;9.620;2023-06-26T03:01:59;10.13;;;8.60;;
4102;SDS011;2065;49.790;9.620;2023-06-26T03:04:31;10.93;;;8.63;;
4102;SDS011;2065;49.790;9.620;2023-06-26T03:07:01;8.50;;;7.70;;
4102;SDS011;2065;49.790;9.620;2023-06-26T03:09:30;11.83;;;7.80;;
4102;SDS011;2065;49.790;9.620;2023-06-26T03:11:57;11.17;;;8.50;;
4102;SDS011;2065;49.790;9.620;2023-06-26T03:14:24;11.73;;;8.10;;
4102;SDS011;2065;49.790;9.620;2023-06-26T03:16:52;10.33;;;8.63;;
4102;SDS011;2065;49.790;9.620;2023-06-26T03:19:23;13.80;;;8.90;;
4102;SDS011;2065;49.790;9.620;2023-06-26T03:22:13;14.13;;;8.80;;
4102;SDS011;2065;49.790;9.620;2023-06-26T03:24:41;10.27;;;8.23;;
4102;SDS011;2065;49.790;9.620;2023-06-26T03:27:10;11.07;;;9.40;;
4102;SDS011;2065;49.790;9.620;2023-06-26T03:29:37;10.13;;;8.83;;
4102;SDS011;2065;49.790;9.620;2023-06-26T03:32:05;10.97;;;9.30;;
4102;SDS011;2065;49.790;9.620;2023-06-26T03:34:33;11.87;;;8.60;;
4102;SDS011;2065;49.790;9.620;2023-06-26T03:37:00;10.53;;;8.90;;
4102;SDS011;2065;49.790;9.620;2023-06-26T03:39:28;9.97;;;8.20;;
4102;SDS011;2065;49.790;9.620;2023-06-26T03:41:57;9.93;;;8.93;;
4102;SDS011;2065;49.790;9.620;2023-06-26T03:44:26;10.40;;;8.93;;
4102;SDS011;2065;49.790;9.620;2023-06-26T03:46:53;9.50;;;7.57;;
4102;SDS011;2065;49.790;9.620;2023-06-26T03:49:20;10.93;;;8.93;;
4102;SDS011;2065;49.790;9.620;2023-06-26T03:51:47;8.80;;;7.90;;
4102;SDS011;2065;49.790;9.620;2023-06-26T03:54:14;11.53;;;8.97;;
4102;SDS011;2065;49.790;9.620;2023-06-26T03:56:42;9.50;;;8.37;;
4102;SDS011;2065;49.790;9.620;2023-06-26T03:59:10;9.03;;;8.03;;
4102;SDS011;2065;49.790;9.620;2023-06-26T04:01:37;9.70;;;8.70;;
4102;SDS011;2065;49.790;9.620;2023-06-26T04:04:05;10.20;;;9.20;;
4102;SDS011;2065;49.790;9.620;2023-06-26T04:06:32;10.80;;;8.60;;
4102;SDS011;2065;49.790;9.620;2023-06-26T04:08:59;12.73;;;8.30;;
4102;SDS011;2065;49.790;9.620;2023-06-26T04:11:28;9.65;;;8.65;;
4102;SDS011;2065;49.790;9.620;2023-06-26T04:13:55;11.05;;;8.60;;
4102;SDS011;2065;49.790;9.620;2023-06-26T04:16:23;9.20;;;8.30;;
4102;SDS011;2065;49.790;9.620;2023-06-26T04:18:50;11.80;;;9.40;;
4102;SDS011;2065;49.790;9.620;2023-06-26T04:21:18;12.20;;;9.00;;
4102;SDS011;2065;49.790;9.620;2023-06-26T04:23:45;11.48;;;8.77;;
4102;SDS011;2065;49.790;9.620;2023-06-26T04:26:12;12.83;;;8.97;;
4102;SDS011;2065;49.790;9.620;2023-06-26T04:28:40;9.47;;;7.73;;
4102;SDS011;2065;49.790;9.620;2023-06-26T04:31:07;12.67;;;9.17;;
4102;SDS011;2065;49.790;9.620;2023-06-26T04:33:36;10.20;;;8.67;;
4102;SDS011;2065;49.790;9.620;2023-06-26T04:36:04;10.17;;;8.83;;
4102;SDS011;2065;49.790;9.620;2023-06-26T04:38:31;11.03;;;8.83;;
4102;SDS011;2065;49.790;9.620;2023-06-26T04:40:59;10.27;;;8.60;;
4102;SDS011;2065;49.790;9.620;2023-06-26T04:43:26;9.73;;;8.73;;
4102;SDS011;2065;49.790;9.620;2023-06-26T04:45:53;10.90;;;9.37;;
4102;SDS011;2065;49.790;9.620;2023-06-26T04:48:20;10.53;;;8.67;;
4102;SDS011;2065;49.790;9.620;2023-06-26T04:50:48;10.23;;;9.07;;
4102;SDS011;2065;49.790;9.620;2023-06-26T04:53:19;14.80;;;9.20;;
4102;SDS011;2065;49.790;9.620;2023-06-26T04:55:47;12.03;;;8.93;;
4102;SDS011;2065;49.790;9.620;2023-06-26T04:58:14;13.90;;;9.57;;
4102;SDS011;2065;49.790;9.620;2023-06-26T05:00:41;9.90;;;8.90;;
4102;SDS011;2065;49.790;9.620;2023-06-26T05:03:08;11.07;;;9.73;;
4102;SDS011;2065;49.790;9.620;2023-06-26T05:05:36;9.80;;;8.83;;
4102;SDS011;2065;49.790;9.620;2023-06-26T05:08:14;15.97;;;9.00;;
4102;SDS011;2065;49.790;9.620;2023-06-26T05:10:42;11.17;;;8.67;;
4102;SDS011;2065;49.790;9.620;2023-06-26T05:13:09;11.73;;;10.38;;
4102;SDS011;2065;49.790;9.620;2023-06-26T05:15:37;11.40;;;9.70;;
4102;SDS011;2065;49.790;9.620;2023-06-26T05:18:03;11.00;;;9.00;;
4102;SDS011;2065;49.790;9.620;2023-06-26T05:20:31;10.82;;;8.95;;
4102;SDS011;2065;49.790;9.620;2023-06-26T05:22:58;14.40;;;10.27;;
4102;SDS011;2065;49.790;9.620;2023-06-26T05:25:28;10.77;;;9.50;;
4102;SDS011;2065;49.790;9.620;2023-06-26T05:27:56;11.10;;;9.60;;
4102;SDS011;2065;49.790;9.620;2023-06-26T05:30:23;12.30;;;9.60;;
4102;SDS011;2065;49.790;9.620;2023-06-26T05:32:51;12.33;;;8.80;;
4102;SDS011;2065;49.790;9.620;2023-06-26T05:35:19;12.60;;;9.45;;
4102;SDS011;2065;49.790;9.620;2023-06-26T05:37:47;13.57;;;9.73;;
4102;SDS011;2065;49.790;9.620;2023-06-26T05:40:15;10.87;;;9.40;;
4102;SDS011;2065;49.790;9.620;2023-06-26T05:42:45;12.07;;;10.13;;
4102;SDS011;2065;49.790;9.620;2023-06-26T05:45:13;11.50;;;9.87;;
4102;SDS011;2065;49.790;9.620;2023-06-26T05:47:40;16.57;;;10.43;;
4102;SDS011;2065;49.790;9.620;2023-06-26T05:50:07;15.33;;;9.53;;
4102;SDS011;2065;49.790;9.620;2023-06-26T05:52:36;15.10;;;9.80;;
4102;SDS011;2065;49.790;9.620;2023-06-26T05:55:04;13.87;;;9.07;;
4102;SDS011;2065;49.790;9.620;2023-06-26T05:57:32;15.63;;;8.90;;
4102;SDS011;2065;49.790;9.620;2023-06-26T06:00:02;14.60;;;8.67;;
4102;SDS011;2065;49.790;9.620;2023-06-26T06:02:38;13.60;;;9.40;;
4102;SDS011;2065;49.790;9.620;2023-06-26T06:05:06;10.30;;;8.97;;
4102;SDS011;2065;49.790;9.620;2023-06-26T06:07:33;12.00;;;8.70;;
4102;SDS011;2065;49.790;9.620;2023-06-26T06:10:01;12.50;;;9.00;;
4102;SDS011;2065;49.790;9.620;2023-06-26T06:12:29;15.27;;;8.50;;
4102;SDS011;2065;49.790;9.620;2023-06-26T06:14:56;13.10;;;8.87;;
4102;SDS011;2065;49.790;9.620;2023-06-26T06:17:25;13.87;;;10.20;;
4102;SDS011;2065;49.790;9.620;2023-06-26T06:19:52;15.30;;;9.10;;
4102;SDS011;2065;49.790;9.620;2023-06-26T06:22:18;10.10;;;7.70;;
4102;SDS011;2065;49.790;9.620;2023-06-26T06:24:46;17.30;;;8.90;;
4102;SDS011;2065;49.790;9.620;2023-06-26T06:27:14;12.60;;;8.50;;
4102;SDS011;2065;49.790;9.620;2023-06-26T06:29:41;12.03;;;8.70;;
4102;SDS011;2065;49.790;9.620;2023-06-26T06:32:08;12.10;;;8.63;;
4102;SDS011;2065;49.790;9.620;2023-06-26T06:34:36;13.17;;;9.10;;
4102;SDS011;2065;49.790;9.620;2023-06-26T06:37:03;11.30;;;8.73;;
4102;SDS011;2065;49.790;9.620;2023-06-26T06:39:30;8.90;;;8.00;;
4102;SDS011;2065;49.790;9.620;2023-06-26T06:41:57;14.20;;;9.13;;
4102;SDS011;2065;49.790;9.620;2023-06-26T06:44:24;12.00;;;9.03;;
4102;SDS011;2065;49.790;9.620;2023-06-26T06:46:51;24.40;;;8.53;;
4102;SDS011;2065;49.790;9.620;2023-06-26T06:49:18;12.90;;;9.00;;
4102;SDS011;2065;49.790;9.620;2023-06-26T06:51:46;14.97;;;8.93;;
4102;SDS011;2065;49.790;9.620;2023-06-26T06:54:15;11.27;;;10.07;;
4102;SDS011;2065;49.790;9.620;2023-06-26T06:56:42;13.20;;;9.00;;
4102;SDS011;2065;49.790;9.620;2023-06-26T06:59:09;12.50;;;8.87;;
4102;SDS011;2065;49.790;9.620;2023-06-26T07:01:36;9.17;;;8.33;;
4102;SDS011;2065;49.790;9.620;2023-06-26T07:04:03;13.00;;;9.10;;
4102;SDS011;2065;49.790;9.620;2023-06-26T07:06:30;13.10;;;9.47;;
4102;SDS011;2065;49.790;9.620;2023-06-26T07:08:58;13.00;;;8.90;;
4102;SDS011;2065;49.790;9.620;2023-06-26T07:11:25;11.77;;;9.93;;
4102;SDS011;2065;49.790;9.620;2023-06-26T07:13:52;10.50;;;8.60;;
4102;SDS011;2065;49.790;9.620;2023-06-26T07:16:19;10.67;;;9.20;;
4102;SDS011;2065;49.790;9.620;2023-06-26T07:18:46;11.20;;;8.30;;
4102;SDS011;2065;49.790;9.620;2023-06-26T07:21:14;11.60;;;8.63;;
4102;SDS011;2065;49.790;9.620;2023-06-26T07:23:41;15.23;;;9.10;;
4102;SDS011;2065;49.790;9.620;2023-06-26T07:26:09;10.77;;;8.20;;
4102;SDS011;2065;49.790;9.620;2023-06-26T07:28:37;9.30;;;8.33;;
4102;SDS011;2065;49.790;9.620;2023-06-26T07:31:03;10.60;;;8.50;;
4102;SDS011;2065;49.790;9.620;2023-06-26T07:33:30;9.73;;;8.20;;
4102;SDS011;2065;49.790;9.620;2023-06-26T07:35:57;10.03;;;8.17;;
4102;SDS011;2065;49.790;9.620;2023-06-26T07:38:24;11.95;;;9.07;;
4102;SDS011;2065;49.790;9.620;2023-06-26T07:40:51;10.80;;;8.40;;
4102;SDS011;2065;49.790;9.620;2023-06-26T07:43:19;14.40;;;8.70;;
4102;SDS011;2065;49.790;9.620;2023-06-26T07:45:48;10.87;;;7.40;;
4102;SDS011;2065;49.790;9.620;2023-06-26T07:48:16;12.47;;;8.00;;
4102;SDS011;2065;49.790;9.620;2023-06-26T07:50:43;10.80;;;9.17;;
4102;SDS011;2065;49.790;9.620;2023-06-26T07:53:10;9.30;;;8.40;;
4102;SDS011;2065;49.790;9.620;2023-06-26T07:55:37;9.70;;;7.30;;
4102;SDS011;2065;49.790;9.620;2023-06-26T07:58:04;10.60;;;8.23;;
4102;SDS011;2065;49.790;9.620;2023-06-26T08:00:32;12.27;;;9.07;;
4102;SDS011;2065;49.790;9.620;2023-06-26T08:02:59;8.93;;;7.80;;
4102;SDS011;2065;49.790;9.620;2023-06-26T08:05:26;8.80;;;7.90;;
4102;SDS011;2065;49.790;9.620;2023-06-26T08:07:53;11.25;;;7.15;;
4102;SDS011;2065;49.790;9.620;2023-06-26T08:10:20;9.83;;;8.83;;
4102;SDS011;2065;49.790;9.620;2023-06-26T08:12:47;8.37;;;7.57;;
4102;SDS011;2065;49.790;9.620;2023-06-26T08:15:15;9.40;;;8.50;;
4102;SDS011;2065;49.790;9.620;2023-06-26T08:17:44;9.73;;;8.53;;
4102;SDS011;2065;49.790;9.620;2023-06-26T08:20:11;9.30;;;7.80;;
4102;SDS011;2065;49.790;9.620;2023-06-26T08:22:39;13.20;;;8.77;;
4102;SDS011;2065;49.790;9.620;2023-06-26T08:25:06;10.25;;;7.93;;
4102;SDS011;2065;49.790;9.620;2023-06-26T08:27:33;9.20;;;8.10;;
4102;SDS011;2065;49.790;9.620;2023-06-26T08:30:00;8.57;;;7.63;;
4102;SDS011;2065;49.790;9.620;2023-06-26T08:32:28;11.70;;;9.03;;
4102;SDS011;2065;49.790;9.620;2023-06-26T08:34:56;9.47;;;8.23;;
4102;SDS011;2065;49.790;9.620;2023-06-26T08:37:23;9.97;;;8.13;;
4102;SDS011;2065;49.790;9.620;2023-06-26T08:39:50;9.80;;;8.30;;
4102;SDS011;2065;49.790;9.620;2023-06-26T08:42:17;10.30;;;8.37;;
4102;SDS011;2065;49.790;9.620;2023-06-26T08:44:44;11.03;;;8.50;;
4102;SDS011;2065;49.790;9.620;2023-06-26T08:47:11;11.90;;;8.47;;
4102;SDS011;2065;49.790;9.620;2023-06-26T08:49:42;12.43;;;7.77;;
4102;SDS011;2065;49.790;9.620;2023-06-26T08:52:16;15.87;;;8.83;;
4102;SDS011;2065;49.790;9.620;2023-06-26T08:54:46;10.93;;;7.40;;
4102;SDS011;2065;49.790;9.620;2023-06-26T08:57:20;9.50;;;8.50;;
4102;SDS011;2065;49.790;9.620;2023-06-26T08:59:49;9.17;;;7.93;;
4102;SDS011;2065;49.790;9.620;2023-06-26T09:02:17;8.50;;;7.63;;
4102;SDS011;2065;49.790;9.620;2023-06-26T09:04:46;9.00;;;8.10;;
4102;SDS011;2065;49.790;9.620;2023-06-26T09:07:15;8.10;;;7.30;;
4102;SDS011;2065;49.790;9.620;2023-06-26T09:09:44;8.83;;;7.93;;
4102;SDS011;2065;49.790;9.620;2023-06-26T09:12:11;11.23;;;7.77;;
4102;SDS011;2065;49.790;9.620;2023-06-26T09:14:39;9.37;;;7.47;;
4102;SDS011;2065;49.790;9.620;2023-06-26T09:17:07;8.70;;;7.03;;
4102;SDS011;2065;49.790;9.620;2023-06-26T09:19:35;7.87;;;6.97;;
4102;SDS011;2065;49.790;9.620;2023-06-26T09:22:03;7.70;;;6.93;;
4102;SDS011;2065;49.790;9.620;2023-06-26T09:24:32;9.03;;;7.73;;
4102;SDS011;2065;49.790;9.620;2023-06-26T09:26:59;7.83;;;7.03;;
4102;SDS011;2065;49.790;9.620;2023-06-26T09:29:27;9.07;;;7.63;;
4102;SDS011;2065;49.790;9.620;2023-06-26T09:31:55;8.00;;;7.30;;
4102;SDS011;2065;49.790;9.620;2023-06-26T09:34:26;8.00;;;7.20;;
4102;SDS011;2065;49.790;9.620;2023-06-26T09:36:57;8.03;;;7.20;;
4102;SDS011;2065;49.790;9.620;2023-06-26T09:39:24;7.40;;;6.70;;
4102;SDS011;2065;49.790;9.620;2023-06-26T09:41:52;8.40;;;6.47;;
4102;SDS011;2065;49.790;9.620;2023-06-26T09:44:22;6.90;;;6.00;;
4102;SDS011;2065;49.790;9.620;2023-06-26T09:46:49;12.23;;;6.80;;
4102;SDS011;2065;49.790;9.620;2023-06-26T09:49:16;7.73;;;6.77;;
4102;SDS011;2065;49.790;9.620;2023-06-26T09:51:43;6.60;;;6.00;;
4102;SDS011;2065;49.790;9.620;2023-06-26T09:54:10;10.00;;;6.97;;
4102;SDS011;2065;49.790;9.620;2023-06-26T09:56:37;7.33;;;5.93;;
4102;SDS011;2065;49.790;9.620;2023-06-26T09:59:05;6.50;;;5.90;;
4102;SDS011;2065;49.790;9.620;2023-06-26T10:01:33;7.32;;;6.50;;
4102;SDS011;2065;49.790;9.620;2023-06-26T10:04:00;7.07;;;5.93;;
4102;SDS011;2065;49.790;9.620;2023-06-26T10:06:27;8.67;;;6.83;;
4102;SDS011;2065;49.790;9.620;2023-06-26T10:08:58;7.30;;;6.50;;
4102;SDS011;2065;49.790;9.620;2023-06-26T10:11:28;6.90;;;6.20;;
4102;SDS011;2065;49.790;9.620;2023-06-26T10:14:01;8.20;;;6.57;;
4102;SDS011;2065;49.790;9.620;2023-06-26T10:16:32;6.83;;;6.23;;
4102;SDS011;2065;49.790;9.620;2023-06-26T10:19:02;6.93;;;6.20;;
4102;SDS011;2065;49.790;9.620;2023-06-26T10:21:32;7.60;;;6.53;;
4102;SDS011;2065;49.790;9.620;2023-06-26T10:24:01;7.60;;;6.80;;
4102;SDS011;2065;49.790;9.620;2023-06-26T10:26:30;7.07;;;6.23;;
4102;SDS011;2065;49.790;9.620;2023-06-26T10:28:58;7.53;;;6.53;;
4102;SDS011;2065;49.790;9.620;2023-06-26T10:31:26;11.67;;;6.53;;
4102;SDS011;2065;49.790;9.620;2023-06-26T10:33:56;10.40;;;6.33;;
4102;SDS011;2065;49.790;9.620;2023-06-26T10:36:27;7.30;;;6.50;;
4102;SDS011;2065;49.790;9.620;2023-06-26T10:38:58;6.87;;;6.17;;
4102;SDS011;2065;49.790;9.620;2023-06-26T10:41:36;7.87;;;6.37;;
4102;SDS011;2065;49.790;9.620;2023-06-26T10:44:09;6.67;;;5.60;;
4102;SDS011;2065;49.790;9.620;2023-06-26T10:46:49;5.60;;;5.10;;
4102;SDS011;2065;49.790;9.620;2023-06-26T10:49:19;6.10;;;5.47;;
4102;SDS011;2065;49.790;9.620;2023-06-26T10:51:47;5.80;;;5.20;;
4102;SDS011;2065;49.790;9.620;2023-06-26T10:54:15;8.13;;;6.47;;
4102;SDS011;2065;49.790;9.620;2023-06-26T10:56:43;6.67;;;6.03;;
4102;SDS011;2065;49.790;9.620;2023-06-26T10:59:13;8.50;;;5.57;;
4102;SDS011;2065;49.790;9.620;2023-06-26T11:01:41;6.00;;;5.50;;
4102;SDS011;2065;49.790;9.620;2023-06-26T11:04:09;6.40;;;5.80;;
4102;SDS011;2065;49.790;9.620;2023-06-26T11:06:38;6.63;;;6.03;;
4102;SDS011;2065;49.790;9.620;2023-06-26T11:09:09;6.07;;;5.47;;
4102;SDS011;2065;49.790;9.620;2023-06-26T11:14:27;6.30;;;5.43;;
4102;SDS011;2065;49.790;9.620;2023-06-26T11:16:55;6.67;;;5.90;;
4102;SDS011;2065;49.790;9.620;2023-06-26T11:19:23;5.50;;;5.10;;
4102;SDS011;2065;49.790;9.620;2023-06-26T11:21:58;7.00;;;5.80;;
4102;SDS011;2065;49.790;9.620;2023-06-26T11:24:26;5.97;;;5.33;;
4102;SDS011;2065;49.790;9.620;2023-06-26T11:26:54;10.67;;;6.00;;
4102;SDS011;2065;49.790;9.620;2023-06-26T11:29:26;7.27;;;6.33;;
4102;SDS011;2065;49.790;9.620;2023-06-26T11:31:58;7.40;;;6.70;;
4102;SDS011;2065;49.790;9.620;2023-06-26T11:34:29;10.57;;;6.83;;
4102;SDS011;2065;49.790;9.620;2023-06-26T11:36:56;7.13;;;6.03;;
4102;SDS011;2065;49.790;9.620;2023-06-26T11:39:28;7.03;;;6.33;;
4102;SDS011;2065;49.790;9.620;2023-06-26T11:41:55;8.13;;;7.33;;
4102;SDS011;2065;49.790;9.620;2023-06-26T11:44:22;7.50;;;6.80;;
4102;SDS011;2065;49.790;9.620;2023-06-26T11:46:52;9.77;;;6.40;;
4102;SDS011;2065;49.790;9.620;2023-06-26T11:49:20;11.97;;;7.47;;
4102;SDS011;2065;49.790;9.620;2023-06-26T11:51:51;7.78;;;6.97;;
4102;SDS011;2065;49.790;9.620;2023-06-26T11:54:24;7.03;;;6.30;;
4102;SDS011;2065;49.790;9.620;2023-06-26T11:56:53;8.80;;;7.90;;
4102;SDS011;2065;49.790;9.620;2023-06-26T11:59:22;9.17;;;8.20;;
4102;SDS011;2065;49.790;9.620;2023-06-26T12:01:50;9.10;;;8.30;;
4102;SDS011;2065;49.790;9.620;2023-06-26T12:04:18;9.23;;;7.27;;
4102;SDS011;2065;49.790;9.620;2023-06-26T12:06:48;8.50;;;7.70;;
4102;SDS011;2065;49.790;9.620;2023-06-26T12:09:17;8.70;;;7.77;;
4102;SDS011;2065;49.790;9.620;2023-06-26T12:11:47;8.10;;;7.40;;
4102;SDS011;2065;49.790;9.620;2023-06-26T12:14:17;7.80;;;7.10;;
4102;SDS011;2065;49.790;9.620;2023-06-26T12:16:46;10.30;;;7.90;;
4102;SDS011;2065;49.790;9.620;2023-06-26T12:19:13;12.83;;;8.33;;
4102;SDS011;2065;49.790;9.620;2023-06-26T12:21:44;9.00;;;7.13;;
4102;SDS011;2065;49.790;9.620;2023-06-26T12:24:14;9.47;;;7.40;;
4102;SDS011;2065;49.790;9.620;2023-06-26T12:26:42;11.73;;;8.00;;
4102;SDS011;2065;49.790;9.620;2023-06-26T12:29:12;15.90;;;7.30;;
4102;SDS011;2065;49.790;9.620;2023-06-26T12:31:40;7.53;;;6.83;;
4102;SDS011;2065;49.790;9.620;2023-06-26T12:34:11;8.57;;;7.70;;
4102;SDS011;2065;49.790;9.620;2023-06-26T12:36:42;6.90;;;6.30;;
4102;SDS011;2065;49.790;9.620;2023-06-26T12:39:11;7.80;;;7.10;;
4102;SDS011;2065;49.790;9.620;2023-06-26T12:41:44;8.17;;;7.37;;
4102;SDS011;2065;49.790;9.620;2023-06-26T12:44:17;7.20;;;6.50;;
4102;SDS011;2065;49.790;9.620;2023-06-26T12:46:45;7.33;;;6.63;;
4102;SDS011;2065;49.790;9.620;2023-06-26T12:49:13;7.63;;;6.87;;
4102;SDS011;2065;49.790;9.620;2023-06-26T12:51:40;15.93;;;7.10;;
4102;SDS011;2065;49.790;9.620;2023-06-26T12:54:08;7.20;;;6.47;;
4102;SDS011;2065;49.790;9.620;2023-06-26T12:56:35;7.50;;;6.47;;
4102;SDS011;2065;49.790;9.620;2023-06-26T12:59:02;7.73;;;6.53;;
4102;SDS011;2065;49.790;9.620;2023-06-26T13:01:30;7.50;;;6.50;;
4102;SDS011;2065;49.790;9.620;2023-06-26T13:03:58;8.93;;;6.90;;
4102;SDS011;2065;49.790;9.620;2023-06-26T13:06:25;9.47;;;7.63;;
4102;SDS011;2065;49.790;9.620;2023-06-26T13:08:51;17.60;;;6.53;;
4102;SDS011;2065;49.790;9.620;2023-06-26T13:11:19;7.60;;;6.73;;
4102;SDS011;2065;49.790;9.620;2023-06-26T13:13:46;7.10;;;6.40;;
4102;SDS011;2065;49.790;9.620;2023-06-26T13:16:14;7.43;;;6.73;;
4102;SDS011;2065;49.790;9.620;2023-06-26T13:18:42;8.90;;;6.90;;
4102;SDS011;2065;49.790;9.620;2023-06-26T13:21:09;9.53;;;7.30;;
4102;SDS011;2065;49.790;9.620;2023-06-26T13:23:36;7.07;;;6.38;;
4102;SDS011;2065;49.790;9.620;2023-06-26T13:26:04;10.43;;;6.13;;
4102;SDS011;2065;49.790;9.620;2023-06-26T13:28:31;7.80;;;7.10;;
4102;SDS011;2065;49.790;9.620;2023-06-26T13:30:59;6.77;;;6.13;;
4102;SDS011;2065;49.790;9.620;2023-06-26T13:33:26;7.77;;;6.87;;
4102;SDS011;2065;49.790;9.620;2023-06-26T13:35:54;7.20;;;6.60;;
4102;SDS011;2065;49.790;9.620;2023-06-26T13:38:21;7.40;;;6.43;;
4102;SDS011;2065;49.790;9.620;2023-06-26T13:40:50;7.20;;;6.50;;
4102;SDS011;2065;49.790;9.620;2023-06-26T13:43:18;7.47;;;6.20;;
4102;SDS011;2065;49.790;9.620;2023-06-26T13:45:46;6.67;;;6.07;;
4102;SDS011;2065;49.790;9.620;2023-06-26T13:48:13;6.90;;;6.20;;
4102;SDS011;2065;49.790;9.620;2023-06-26T13:50:40;7.00;;;5.93;;
4102;SDS011;2065;49.790;9.620;2023-06-26T13:53:09;7.03;;;6.40;;
4102;SDS011;2065;49.790;9.620;2023-06-26T13:55:36;6.60;;;5.67;;
4102;SDS011;2065;49.790;9.620;2023-06-26T13:58:03;6.90;;;6.20;;
4102;SDS011;2065;49.790;9.620;2023-06-26T14:00:30;9.37;;;6.50;;
4102;SDS011;2065;49.790;9.620;2023-06-26T14:02:58;9.50;;;5.97;;
4102;SDS011;2065;49.790;9.620;2023-06-26T14:05:25;7.20;;;6.50;;
4102;SDS011;2065;49.790;9.620;2023-06-26T14:07:52;6.93;;;6.23;;
4102;SDS011;2065;49.790;9.620;2023-06-26T14:10:21;8.67;;;6.60;;
4102;SDS011;2065;49.790;9.620;2023-06-26T14:12:49;7.30;;;6.60;;
4102;SDS011;2065;49.790;9.620;2023-06-26T14:15:16;6.30;;;5.80;;
4102;SDS011;2065;49.790;9.620;2023-06-26T14:17:43;7.50;;;6.80;;
4102;SDS011;2065;49.790;9.620;2023-06-26T14:20:10;8.47;;;6.07;;
4102;SDS011;2065;49.790;9.620;2023-06-26T14:22:38;5.90;;;5.40;;
4102;SDS011;2065;49.790;9.620;2023-06-26T14:25:06;6.23;;;5.63;;
4102;SDS011;2065;49.790;9.620;2023-06-26T14:27:35;7.20;;;6.50;;
4102;SDS011;2065;49.790;9.620;2023-06-26T14:30:02;7.13;;;6.13;;
4102;SDS011;2065;49.790;9.620;2023-06-26T14:32:31;7.63;;;6.47;;
4102;SDS011;2065;49.790;9.620;2023-06-26T14:34:58;7.22;;;5.85;;
4102;SDS011;2065;49.790;9.620;2023-06-26T14:37:25;5.80;;;5.20;;
4102;SDS011;2065;49.790;9.620;2023-06-26T14:39:52;7.00;;;6.30;;
4102;SDS011;2065;49.790;9.620;2023-06-26T14:42:19;7.00;;;6.37;;
4102;SDS011;2065;49.790;9.620;2023-06-26T14:44:47;6.57;;;5.47;;
4102;SDS011;2065;49.790;9.620;2023-06-26T14:47:15;6.43;;;5.70;;
4102;SDS011;2065;49.790;9.620;2023-06-26T14:49:43;6.90;;;6.23;;
4102;SDS011;2065;49.790;9.620;2023-06-26T14:52:10;8.80;;;7.00;;
4102;SDS011;2065;49.790;9.620;2023-06-26T14:54:37;8.77;;;7.50;;
4102;SDS011;2065;49.790;9.620;2023-06-26T14:57:05;8.97;;;6.10;;
4102;SDS011;2065;49.790;9.620;2023-06-26T14:59:32;7.60;;;6.67;;
4102;SDS011;2065;49.790;9.620;2023-06-26T15:02:01;8.70;;;6.93;;
4102;SDS011;2065;49.790;9.620;2023-06-26T15:04:28;8.33;;;6.00;;
4102;SDS011;2065;49.790;9.620;2023-06-26T15:06:56;9.33;;;5.77;;
4102;SDS011;2065;49.790;9.620;2023-06-26T15:09:24;11.20;;;5.90;;
4102;SDS011;2065;49.790;9.620;2023-06-26T15:11:51;6.55;;;5.88;;
4102;SDS011;2065;49.790;9.620;2023-06-26T15:14:18;8.87;;;6.30;;
4102;SDS011;2065;49.790;9.620;2023-06-26T15:16:45;10.03;;;6.63;;
4102;SDS011;2065;49.790;9.620;2023-06-26T15:19:13;8.43;;;5.60;;